createdAt,value
2023-01-26T00:00:33.047Z,6.00
2023-01-26T00:05:40.534Z,5.97
2023-01-26T00:10:50.963Z,6.70
2023-01-26T00:15:54.756Z,6.28
2023-01-26T00:21:00.525Z,5.57
2023-01-26T00:26:08.131Z,6.15
2023-01-26T00:31:20.794Z,6.55
2023-01-26T00:36:25.172Z,6.88
2023-01-26T00:41:47.872Z,5.78
2023-01-26T00:46:52.459Z,4.30
2023-01-26T00:51:56.408Z,5.78
2023-01-26T00:57:00.411Z,5.50
2023-01-26T01:02:04.807Z,4.95
2023-01-26T01:07:08.743Z,6.03
2023-01-26T01:12:13.909Z,6.22
2023-01-26T01:17:17.959Z,6.00
2023-01-26T01:22:22.300Z,5.80
2023-01-26T01:27:26.751Z,5.32
2023-01-26T01:32:30.757Z,4.57
2023-01-26T01:37:34.651Z,6.65
2023-01-26T01:42:38.698Z,5.32
2023-01-26T01:47:42.568Z,5.65
2023-01-26T01:52:47.426Z,5.47
2023-01-26T01:57:56.098Z,5.93
2023-01-26T02:03:12.075Z,5.40
2023-01-26T02:08:19.875Z,5.80
2023-01-26T02:13:25.711Z,6.03
2023-01-26T02:18:30.093Z,5.55
2023-01-26T02:24:13.061Z,5.60
2023-01-26T02:29:16.971Z,5.68
2023-01-26T02:34:21.131Z,5.07
2023-01-26T02:40:04.899Z,5.40
2023-01-26T02:45:17.228Z,4.25
2023-01-26T02:50:22.830Z,5.50
2023-01-26T02:55:26.951Z,6.20
2023-01-26T03:00:37.900Z,5.43
2023-01-26T03:05:42.663Z,5.88
2023-01-26T03:10:48.249Z,5.00
2023-01-26T03:15:55.245Z,5.45
2023-01-26T03:21:19.720Z,6.45
2023-01-26T03:26:42.062Z,6.45
2023-01-26T03:31:45.979Z,5.60
2023-01-26T03:36:52.104Z,5.28
2023-01-26T03:42:15.697Z,4.47
2023-01-26T03:47:38.342Z,3.83
2023-01-26T03:53:01.042Z,5.00
2023-01-26T03:58:04.925Z,4.72
2023-01-26T04:03:28.978Z,4.20
2023-01-26T04:08:32.797Z,4.10
2023-01-26T04:13:58.487Z,6.07
2023-01-26T04:19:25.378Z,5.57
2023-01-26T04:24:29.515Z,5.18
2023-01-26T04:29:34.334Z,5.10
2023-01-26T04:34:38.370Z,4.95
2023-01-26T04:39:49.556Z,4.68
2023-01-26T04:44:54.898Z,5.03
2023-01-26T04:49:59.833Z,4.97
2023-01-26T04:55:03.775Z,4.70
2023-01-26T05:00:11.484Z,5.22
2023-01-26T05:05:15.487Z,5.25
2023-01-26T05:10:19.940Z,5.20
2023-01-26T05:15:50.061Z,4.68
2023-01-26T05:21:17.320Z,4.15
2023-01-26T05:26:25.851Z,4.30
2023-01-26T05:31:33.805Z,4.70
2023-01-26T05:36:37.586Z,5.18
2023-01-26T05:41:41.595Z,4.45
2023-01-26T05:46:54.857Z,4.30
2023-01-26T05:51:59.933Z,4.57
2023-01-26T05:57:06.023Z,4.05
2023-01-26T06:07:21.839Z,3.85
2023-01-26T06:12:40.783Z,4.05
2023-01-26T06:17:54.599Z,4.38
2023-01-26T06:23:02.376Z,4.07
2023-01-26T06:28:09.512Z,4.43
2023-01-26T06:33:13.547Z,4.00
2023-01-26T06:38:17.503Z,3.50
2023-01-26T06:43:22.601Z,4.30
2023-01-26T06:48:29.048Z,3.92
2023-01-26T06:53:42.628Z,3.70
2023-01-26T06:58:53.917Z,3.88
2023-01-26T07:04:28.609Z,4.38
2023-01-26T07:09:32.588Z,3.88
2023-01-26T07:14:36.703Z,3.97
2023-01-26T07:19:40.788Z,4.38
2023-01-26T07:24:44.611Z,4.10
2023-01-26T07:29:49.645Z,4.10
2023-01-26T07:34:53.350Z,4.40
2023-01-26T07:39:57.676Z,4.30
2023-01-26T07:45:05.303Z,3.90
2023-01-26T07:50:11.186Z,4.87
2023-01-26T07:55:15.805Z,4.68
2023-01-26T08:00:20.726Z,3.70
2023-01-26T08:05:24.464Z,3.85
2023-01-26T08:10:32.425Z,4.40
2023-01-26T08:15:36.262Z,4.53
2023-01-26T08:20:41.050Z,4.13
2023-01-26T08:25:44.947Z,3.72
2023-01-26T08:30:49.147Z,4.18
2023-01-26T08:35:52.936Z,4.15
2023-01-26T08:40:58.540Z,4.03
2023-01-26T08:46:04.774Z,3.88
2023-01-26T08:51:09.388Z,4.78
2023-01-26T08:56:14.468Z,4.10
2023-01-26T09:01:18.648Z,4.45
2023-01-26T09:06:22.722Z,4.68
2023-01-26T09:11:26.645Z,5.45
2023-01-26T09:16:30.698Z,4.55
2023-01-26T09:21:34.619Z,3.65
2023-01-26T09:26:38.920Z,3.88
2023-01-26T09:31:43.156Z,3.70
2023-01-26T09:36:47.100Z,3.83
2023-01-26T09:41:57.533Z,3.53
2023-01-26T09:47:11.124Z,4.22
2023-01-26T09:52:29.235Z,3.38
2023-01-26T09:57:50.143Z,3.85
2023-01-26T10:03:11.797Z,3.78
2023-01-26T10:08:19.527Z,4.43
2023-01-26T10:13:24.153Z,3.80
2023-01-26T10:18:35.407Z,4.72
2023-01-26T10:23:48.833Z,3.80
2023-01-26T10:28:54.011Z,3.92
2023-01-26T10:34:11.620Z,3.90
2023-01-26T10:39:18.759Z,3.53
2023-01-26T10:44:33.707Z,3.92
2023-01-26T10:49:37.614Z,3.60
2023-01-26T10:54:44.506Z,3.75
2023-01-26T10:59:58.868Z,4.35
2023-01-26T11:05:16.614Z,3.85
2023-01-26T11:10:28.536Z,3.65
2023-01-26T11:15:40.988Z,3.97
2023-01-26T11:20:53.750Z,4.10
2023-01-26T11:26:25.474Z,4.40
2023-01-26T11:31:56.047Z,4.32
2023-01-26T11:37:05.059Z,4.65
2023-01-26T11:42:58.664Z,3.28
2023-01-26T11:48:20.529Z,4.63
2023-01-26T11:53:47.359Z,5.15
2023-01-26T11:59:22.471Z,3.22
2023-01-26T12:04:28.633Z,4.68
2023-01-26T12:09:44.258Z,5.13
2023-01-26T12:14:52.119Z,3.70
2023-01-26T12:20:08.977Z,4.97
2023-01-26T12:25:29.480Z,4.43
2023-01-26T12:30:42.651Z,4.90
2023-01-26T12:35:59.098Z,4.63
2023-01-26T12:41:40.475Z,5.00
2023-01-26T12:46:51.746Z,4.70
2023-01-26T12:52:08.503Z,4.03
2023-01-26T12:57:25.831Z,4.78
2023-01-26T13:02:34.893Z,4.53
2023-01-26T13:07:41.156Z,5.13
2023-01-26T13:13:21.093Z,5.10
2023-01-26T13:18:50.526Z,4.70
2023-01-26T13:23:54.490Z,3.70
2023-01-26T13:29:32.629Z,4.45
2023-01-26T13:40:06.495Z,4.60
2023-01-26T13:45:43.853Z,4.00
2023-01-26T13:50:52.813Z,4.75
2023-01-26T13:56:00.752Z,5.30
2023-01-26T14:01:06.661Z,4.10
2023-01-26T14:06:16.667Z,4.97
2023-01-26T14:11:24.439Z,4.88
2023-01-26T14:16:38.619Z,5.47
2023-01-26T14:21:50.555Z,5.55
2023-01-26T14:26:54.578Z,3.95
2023-01-26T14:32:00.730Z,5.57
2023-01-26T14:37:16.206Z,4.97
2023-01-26T14:42:21.592Z,4.95
2023-01-26T14:47:33.637Z,4.22
2023-01-26T14:52:45.930Z,4.40
2023-01-26T14:57:49.950Z,4.78
2023-01-26T15:02:56.826Z,4.63
2023-01-26T15:08:03.374Z,3.97
2023-01-26T15:13:16.659Z,4.47
2023-01-26T15:18:21.859Z,4.45
2023-01-26T15:23:30.367Z,3.47
2023-01-26T15:28:35.351Z,4.18
2023-01-26T15:33:52.294Z,4.32
2023-01-26T15:39:14.050Z,4.50
2023-01-26T15:44:20.842Z,3.55
2023-01-26T15:49:24.704Z,4.40
2023-01-26T15:54:28.779Z,3.70
2023-01-26T15:59:32.523Z,4.80
2023-01-26T16:04:36.425Z,3.70
2023-01-26T16:09:41.762Z,3.60
2023-01-26T16:14:46.095Z,4.10
2023-01-26T16:19:49.937Z,3.58
2023-01-26T16:24:53.741Z,3.40
2023-01-26T16:29:57.627Z,2.92
2023-01-26T16:35:01.600Z,3.47
2023-01-26T16:40:07.798Z,3.60
2023-01-26T16:45:21.933Z,3.47
2023-01-26T16:50:27.443Z,2.97
2023-01-26T16:55:31.368Z,3.50
2023-01-26T17:00:35.225Z,2.78
2023-01-26T17:05:40.032Z,3.13
2023-01-26T17:10:59.855Z,2.67
2023-01-26T17:16:06.636Z,2.92
2023-01-26T17:21:10.581Z,2.40
2023-01-26T17:26:17.689Z,3.75
2023-01-26T17:31:23.257Z,3.55
2023-01-26T17:36:27.035Z,3.50
2023-01-26T17:41:31.023Z,3.22
2023-01-26T17:46:34.758Z,2.92
2023-01-26T17:51:41.292Z,3.17
2023-01-26T17:56:45.033Z,2.13
2023-01-26T18:01:49.120Z,3.50
2023-01-26T18:06:52.917Z,3.25
2023-01-26T18:11:56.887Z,2.05
2023-01-26T18:17:01.108Z,3.60
2023-01-26T18:22:04.936Z,2.65
2023-01-26T18:27:09.097Z,3.78
2023-01-26T18:32:13.257Z,3.88
2023-01-26T18:37:16.946Z,4.50
2023-01-26T18:42:20.986Z,4.13
2023-01-26T18:47:24.750Z,3.55
2023-01-26T18:52:30.776Z,4.65
2023-01-26T18:57:35.442Z,3.88
2023-01-26T19:02:39.381Z,3.65
2023-01-26T19:07:43.316Z,4.55
2023-01-26T19:12:50.323Z,3.38
2023-01-26T19:17:54.323Z,5.20
2023-01-26T19:22:59.178Z,4.72
2023-01-26T19:28:03.308Z,3.72
2023-01-26T19:33:25.581Z,5.07
2023-01-26T19:38:30.808Z,6.53
2023-01-26T19:43:34.985Z,2.72
2023-01-26T19:48:38.955Z,5.82
2023-01-26T19:53:45.880Z,3.92
2023-01-26T19:58:55.090Z,5.82
2023-01-26T20:04:01.289Z,7.70
2023-01-26T20:09:07.337Z,7.63
2023-01-26T20:14:12.107Z,6.40
2023-01-26T20:19:16.096Z,6.25
2023-01-26T20:24:20.784Z,4.40
2023-01-26T20:29:25.627Z,5.32
2023-01-26T20:34:29.668Z,6.70
2023-01-26T20:39:33.441Z,6.70
2023-01-26T20:44:40.237Z,6.63
2023-01-26T20:49:45.411Z,6.80
2023-01-26T20:54:49.411Z,7.00
2023-01-26T20:59:53.236Z,8.30
2023-01-26T21:04:57.138Z,6.78
2023-01-26T21:10:01.186Z,6.80
2023-01-26T21:15:08.459Z,6.65
2023-01-26T21:20:14.449Z,6.70
2023-01-26T21:25:18.461Z,7.03
2023-01-26T21:30:22.469Z,6.13
2023-01-26T21:35:26.255Z,6.85
2023-01-26T21:40:30.190Z,6.57
2023-01-26T21:45:54.040Z,7.07
2023-01-26T21:51:18.100Z,6.72
2023-01-26T21:56:21.939Z,6.80
2023-01-26T22:01:26.121Z,5.32
2023-01-26T22:06:30.742Z,7.10
2023-01-26T22:11:34.698Z,6.15
2023-01-26T22:16:39.257Z,6.28
2023-01-26T22:21:43.642Z,6.13
2023-01-26T22:26:48.248Z,6.60
2023-01-26T22:31:53.745Z,5.57
2023-01-26T22:36:57.651Z,6.35
2023-01-26T22:42:01.587Z,4.30
2023-01-26T22:47:05.421Z,6.78
2023-01-26T22:52:09.359Z,6.90
2023-01-26T22:57:13.214Z,5.85
2023-01-26T23:02:16.925Z,6.15
2023-01-26T23:07:20.770Z,5.88
2023-01-26T23:12:24.492Z,5.32
2023-01-26T23:17:28.860Z,5.90
2023-01-26T23:22:33.003Z,6.43
2023-01-26T23:27:36.865Z,7.13
2023-01-26T23:32:40.698Z,6.55
2023-01-26T23:37:44.458Z,7.15
2023-01-26T23:43:06.691Z,5.97
2023-01-26T23:48:12.656Z,5.63
2023-01-26T23:53:16.415Z,6.57
2023-01-26T23:58:20.774Z,6.50
